createdAt,value
2023-01-20T00:01:21.381Z,97837.50
2023-01-20T00:03:48.206Z,97832.28
2023-01-20T00:06:14.866Z,97840.13
2023-01-20T00:08:41.804Z,97841.00
2023-01-20T00:11:10.956Z,97847.09
2023-01-20T00:13:38.512Z,97854.03
2023-01-20T00:16:07.340Z,97854.91
2023-01-20T00:18:35.054Z,97854.03
2023-01-20T00:21:06.450Z,97855.78
2023-01-20T00:23:33.621Z,97853.16
2023-01-20T00:26:07.206Z,97855.78
2023-01-20T00:28:35.323Z,97858.38
2023-01-20T00:31:18.372Z,97866.22
2023-01-20T00:33:46.681Z,97863.63
2023-01-20T00:36:15.233Z,97866.22
2023-01-20T00:38:42.558Z,97866.22
2023-01-20T00:41:10.000Z,97870.56
2023-01-20T00:43:37.232Z,97869.69
2023-01-20T00:46:05.141Z,97888.00
2023-01-20T00:48:31.900Z,97880.13
2023-01-20T00:50:58.800Z,97885.34
2023-01-20T00:53:25.728Z,97881.00
2023-01-20T00:55:52.307Z,97889.72
2023-01-20T00:58:18.998Z,97888.84
2023-01-20T01:00:50.611Z,97885.34
2023-01-20T01:03:17.497Z,97893.16
2023-01-20T01:05:45.374Z,97894.06
2023-01-20T01:08:12.452Z,97891.44
2023-01-20T01:10:40.270Z,97901.00
2023-01-20T01:13:07.815Z,97906.19
2023-01-20T01:15:34.675Z,97907.09
2023-01-20T01:18:01.836Z,97901.00
2023-01-20T01:20:29.176Z,97906.22
2023-01-20T01:22:55.900Z,97902.75
2023-01-20T01:25:22.745Z,97909.66
2023-01-20T01:27:49.381Z,97911.41
2023-01-20T01:30:16.034Z,97915.75
2023-01-20T01:32:42.694Z,97914.00
2023-01-20T01:35:09.466Z,97928.75
2023-01-20T01:37:36.171Z,97939.19
2023-01-20T01:40:03.143Z,97934.00
2023-01-20T01:42:29.977Z,97930.50
2023-01-20T01:45:12.363Z,97940.94
2023-01-20T01:47:54.658Z,97938.31
2023-01-20T01:50:30.927Z,97940.94
2023-01-20T01:52:57.798Z,97940.03
2023-01-20T01:55:29.299Z,97944.41
2023-01-20T01:57:58.298Z,97945.25
2023-01-20T02:00:25.044Z,97953.97
2023-01-20T02:02:52.132Z,97953.94
2023-01-20T02:05:19.900Z,97948.75
2023-01-20T02:07:48.012Z,97952.25
2023-01-20T02:10:15.321Z,97952.25
2023-01-20T02:12:43.684Z,97954.84
2023-01-20T02:15:10.731Z,97966.97
2023-01-20T02:17:57.512Z,97963.50
2023-01-20T02:20:29.909Z,97964.34
2023-01-20T02:23:16.913Z,97970.47
2023-01-20T02:25:46.250Z,97972.22
2023-01-20T02:28:12.841Z,97974.78
2023-01-20T02:30:54.828Z,97975.66
2023-01-20T02:33:33.145Z,97973.97
2023-01-20T02:36:08.631Z,97974.84
2023-01-20T02:39:04.395Z,97980.09
2023-01-20T02:41:33.964Z,97979.22
2023-01-20T02:44:06.900Z,97980.09
2023-01-20T02:46:39.292Z,97989.69
2023-01-20T02:49:15.627Z,97990.56
2023-01-20T02:51:49.450Z,97987.94
2023-01-20T02:54:18.797Z,98000.13
2023-01-20T02:56:48.178Z,97994.03
2023-01-20T02:59:20.848Z,97992.31
2023-01-20T03:01:56.043Z,97992.28
2023-01-20T03:04:27.977Z,97998.41
2023-01-20T03:06:57.509Z,97994.94
2023-01-20T03:09:30.438Z,97995.81
2023-01-20T03:12:03.971Z,97996.66
2023-01-20T03:14:30.889Z,98001.91
2023-01-20T03:16:57.513Z,98007.16
2023-01-20T03:19:24.444Z,98003.66
2023-01-20T03:21:51.057Z,98007.13
2023-01-20T03:24:17.841Z,98019.31
2023-01-20T03:26:44.626Z,98015.00
2023-01-20T03:29:11.733Z,98014.97
2023-01-20T03:31:52.197Z,98021.94
2023-01-20T03:34:22.257Z,98026.28
2023-01-20T03:36:49.974Z,98021.09
2023-01-20T03:39:17.505Z,98026.31
2023-01-20T03:42:11.841Z,98021.97
2023-01-20T03:44:57.238Z,98026.28
2023-01-20T03:47:41.181Z,98024.56
2023-01-20T03:50:25.789Z,98033.25
2023-01-20T03:53:07.400Z,98028.00
2023-01-20T03:55:42.045Z,98032.38
2023-01-20T03:58:12.694Z,98039.31
2023-01-20T04:00:47.942Z,98044.53
2023-01-20T04:03:30.268Z,98048.03
2023-01-20T04:06:00.625Z,98045.41
2023-01-20T04:08:33.248Z,98056.72
2023-01-20T04:11:03.782Z,98057.56
2023-01-20T04:13:30.458Z,98053.22
2023-01-20T04:15:59.385Z,98062.78
2023-01-20T04:18:26.231Z,98061.91
2023-01-20T04:21:02.409Z,98062.81
2023-01-20T04:23:44.078Z,98067.16
2023-01-20T04:26:10.896Z,98072.38
2023-01-20T04:28:37.498Z,98077.63
2023-01-20T04:31:04.310Z,98080.25
2023-01-20T04:33:31.000Z,98082.84
2023-01-20T04:35:57.613Z,98090.69
2023-01-20T04:38:24.241Z,98088.03
2023-01-20T04:40:51.575Z,98080.22
2023-01-20T04:43:18.465Z,98088.91
2023-01-20T04:45:45.113Z,98089.81
2023-01-20T04:48:11.786Z,98085.41
2023-01-20T04:50:41.373Z,98096.69
2023-01-20T04:53:13.753Z,98096.69
2023-01-20T04:55:40.418Z,98101.00
2023-01-20T04:58:07.012Z,98102.75
2023-01-20T05:00:33.816Z,98106.25
2023-01-20T05:03:00.649Z,98099.31
2023-01-20T05:05:27.381Z,98098.44
2023-01-20T05:07:54.995Z,98104.53
2023-01-20T05:10:21.638Z,98103.63
2023-01-20T05:12:48.244Z,98110.50
2023-01-20T05:15:15.196Z,98113.94
2023-01-20T05:17:42.019Z,98124.38
2023-01-20T05:20:09.509Z,98120.88
2023-01-20T05:22:36.167Z,98113.91
2023-01-20T05:25:02.919Z,98123.47
2023-01-20T05:27:29.620Z,98122.59
2023-01-20T05:29:56.295Z,98129.56
2023-01-20T05:32:22.952Z,98133.91
2023-01-20T05:34:49.658Z,98140.00
2023-01-20T05:37:19.153Z,98142.56
2023-01-20T05:39:45.897Z,98136.50
2023-01-20T05:42:12.697Z,98130.38
2023-01-20T05:44:39.372Z,98133.88
2023-01-20T05:47:06.073Z,98139.94
2023-01-20T05:49:32.846Z,98146.88
2023-01-20T05:51:59.489Z,98147.72
2023-01-20T05:54:26.273Z,98151.19
2023-01-20T05:56:52.945Z,98161.63
2023-01-20T05:59:19.595Z,98152.91
2023-01-20T06:01:46.424Z,98168.53
2023-01-20T06:04:13.065Z,98167.66
2023-01-20T06:06:39.711Z,98172.00
2023-01-20T06:09:06.753Z,98177.28
2023-01-20T06:11:33.494Z,98181.69
2023-01-20T06:14:00.183Z,98179.09
2023-01-20T06:16:26.910Z,98182.63
2023-01-20T06:18:53.741Z,98179.16
2023-01-20T06:21:20.457Z,98180.91
2023-01-20T06:23:47.261Z,98183.53
2023-01-20T06:26:14.709Z,98180.06
2023-01-20T06:28:41.439Z,98191.34
2023-01-20T06:31:17.349Z,98196.56
2023-01-20T06:33:44.129Z,98192.22
2023-01-20T06:36:17.446Z,98197.47
2023-01-20T06:38:48.478Z,98200.94
2023-01-20T06:41:15.427Z,98192.25
2023-01-20T06:43:42.346Z,98207.06
2023-01-20T06:46:14.500Z,98211.38
2023-01-20T06:48:42.235Z,98214.81
2023-01-20T06:51:18.226Z,98224.38
2023-01-20T06:53:45.552Z,98226.19
2023-01-20T06:56:13.741Z,98225.34
2023-01-20T06:58:40.713Z,98228.00
2023-01-20T07:01:15.984Z,98228.00
2023-01-20T07:03:45.760Z,98229.72
2023-01-20T07:06:15.126Z,98239.28
2023-01-20T07:08:43.868Z,98248.81
2023-01-20T07:11:10.777Z,98255.75
2023-01-20T07:13:37.595Z,98254.00
2023-01-20T07:16:04.743Z,98247.91
2023-01-20T07:18:31.435Z,98249.59
2023-01-20T07:20:58.099Z,98261.75
2023-01-20T07:23:24.739Z,98266.97
2023-01-20T07:26:09.174Z,98276.53
2023-01-20T07:28:37.171Z,98274.00
2023-01-20T07:31:09.698Z,98278.34
2023-01-20T07:33:36.788Z,98285.31
2023-01-20T07:36:04.962Z,98287.06
2023-01-20T07:38:31.556Z,98284.50
2023-01-20T07:41:06.063Z,98288.00
2023-01-20T07:43:33.268Z,98290.56
2023-01-20T07:46:02.125Z,98294.03
2023-01-20T07:48:31.269Z,98292.25
2023-01-20T07:51:05.259Z,98290.59
2023-01-20T07:53:46.490Z,98296.72
2023-01-20T07:56:21.211Z,98303.75
2023-01-20T07:58:50.419Z,98299.47
2023-01-20T08:01:20.575Z,98304.72
2023-01-20T08:03:47.897Z,98310.00
2023-01-20T08:06:17.518Z,98310.00
2023-01-20T08:08:44.643Z,98311.78
2023-01-20T08:11:13.739Z,98311.78
2023-01-20T08:13:40.758Z,98322.28
2023-01-20T08:16:09.607Z,98325.75
2023-01-20T08:18:36.509Z,98326.59
2023-01-20T08:21:06.545Z,98328.38
2023-01-20T08:23:34.296Z,98328.44
2023-01-20T08:26:04.667Z,98339.78
2023-01-20T08:28:35.210Z,98343.28
2023-01-20T08:31:12.215Z,98342.47
2023-01-20T08:33:39.934Z,98338.16
2023-01-20T08:36:17.522Z,98342.50
2023-01-20T08:38:45.038Z,98344.28
2023-01-20T08:41:18.483Z,98348.63
2023-01-20T08:43:45.550Z,98353.00
2023-01-20T08:46:14.999Z,98352.19
2023-01-20T08:48:42.685Z,98356.56
2023-01-20T08:51:16.731Z,98352.16
2023-01-20T08:53:43.771Z,98359.97
2023-01-20T08:56:11.283Z,98361.72
2023-01-20T08:58:38.643Z,98359.19
2023-01-20T09:01:14.335Z,98362.75
2023-01-20T09:03:42.063Z,98360.22
2023-01-20T09:06:12.676Z,98354.16
2023-01-20T09:08:39.759Z,98368.09
2023-01-20T09:11:11.766Z,98371.63
2023-01-20T09:13:38.485Z,98363.72
2023-01-20T09:16:05.552Z,98367.22
2023-01-20T09:18:34.604Z,98367.19
2023-01-20T09:21:02.726Z,98359.41
2023-01-20T09:23:29.332Z,98363.78
2023-01-20T09:25:59.642Z,98365.56
2023-01-20T09:28:26.539Z,98362.94
2023-01-20T09:31:04.774Z,98367.31
2023-01-20T09:33:32.758Z,98369.06
2023-01-20T09:36:00.141Z,98370.81
2023-01-20T09:38:45.895Z,98376.06
2023-01-20T09:41:44.031Z,98381.28
2023-01-20T09:44:41.905Z,98378.66
2023-01-20T09:47:22.533Z,98379.53
2023-01-20T09:50:36.037Z,98376.91
2023-01-20T09:53:22.861Z,98386.41
2023-01-20T09:55:53.289Z,98384.72
2023-01-20T09:58:32.071Z,98382.91
2023-01-20T10:01:31.139Z,98381.22
2023-01-20T10:04:14.421Z,98381.25
2023-01-20T10:06:56.865Z,98373.41
2023-01-20T10:09:35.683Z,98370.81
2023-01-20T10:12:18.345Z,98377.78
2023-01-20T10:14:50.757Z,98368.19
2023-01-20T10:17:39.985Z,98373.38
2023-01-20T10:20:22.928Z,98361.84
2023-01-20T10:23:01.034Z,98355.75
2023-01-20T10:25:36.462Z,98362.69
2023-01-20T10:28:12.021Z,98358.44
2023-01-20T10:30:39.012Z,98359.00
2023-01-20T10:33:22.008Z,98327.69
2023-01-20T10:35:53.365Z,98329.13
2023-01-20T10:38:38.635Z,98340.47
2023-01-20T10:41:31.983Z,98348.94
2023-01-20T10:43:59.843Z,98361.25
2023-01-20T10:46:46.186Z,98360.72
2023-01-20T10:50:01.071Z,98374.22
2023-01-20T10:52:55.613Z,98376.03
2023-01-20T10:55:29.755Z,98378.66
2023-01-20T10:58:08.945Z,98385.66
2023-01-20T11:00:35.762Z,98384.78
2023-01-20T11:03:06.130Z,98386.50
2023-01-20T11:05:41.491Z,98383.00
2023-01-20T11:08:19.265Z,98389.13
2023-01-20T11:10:49.239Z,98385.66
2023-01-20T11:13:17.279Z,98386.50
2023-01-20T11:15:49.834Z,98390.00
2023-01-20T11:18:16.530Z,98392.59
2023-01-20T11:20:49.260Z,98398.69
2023-01-20T11:23:23.797Z,98404.78
2023-01-20T11:25:56.956Z,98406.59
2023-01-20T11:28:24.968Z,98400.50
2023-01-20T11:30:54.922Z,98399.59
2023-01-20T11:33:26.282Z,98397.81
2023-01-20T11:36:01.637Z,98394.34
2023-01-20T11:38:31.246Z,98403.91
2023-01-20T11:40:58.693Z,98405.72
2023-01-20T11:43:30.615Z,98400.47
2023-01-20T11:46:10.800Z,98397.00
2023-01-20T11:48:37.605Z,98401.34
2023-01-20T11:51:05.000Z,98390.00
2023-01-20T11:53:33.522Z,98405.69
2023-01-20T11:56:02.045Z,98399.56
2023-01-20T11:58:33.162Z,98403.06
2023-01-20T12:01:05.904Z,98390.00
2023-01-20T12:03:50.894Z,98388.25
2023-01-20T12:06:21.116Z,98390.84
2023-01-20T12:08:55.527Z,98383.88
2023-01-20T12:11:33.723Z,98390.00
2023-01-20T12:14:24.890Z,98397.78
2023-01-20T12:17:19.109Z,98396.94
2023-01-20T12:20:05.198Z,98393.50
2023-01-20T12:22:57.379Z,98386.50
2023-01-20T12:25:29.510Z,98390.88
2023-01-20T12:28:10.037Z,98391.75
2023-01-20T12:30:56.968Z,98392.63
2023-01-20T12:33:33.229Z,98389.13
2023-01-20T12:36:11.639Z,98390.88
2023-01-20T12:39:23.774Z,98390.00
2023-01-20T12:42:18.204Z,98389.13
2023-01-20T12:44:56.465Z,98389.13
2023-01-20T12:47:47.818Z,98383.88
2023-01-20T12:50:18.080Z,98382.13
2023-01-20T12:52:57.116Z,98382.13
2023-01-20T12:55:35.702Z,98383.91
2023-01-20T12:58:29.668Z,98383.88
2023-01-20T13:01:16.750Z,98387.38
2023-01-20T13:03:56.183Z,98389.09
2023-01-20T13:07:04.330Z,98383.00
2023-01-20T13:10:03.443Z,98378.63
2023-01-20T13:12:57.778Z,98388.13
2023-01-20T13:15:28.950Z,98415.13
2023-01-20T13:18:21.799Z,98411.50
2023-01-20T13:20:48.957Z,98410.69
2023-01-20T13:23:20.711Z,98406.34
2023-01-20T13:25:47.568Z,98407.25
2023-01-20T13:28:17.511Z,98401.88
2023-01-20T13:30:51.267Z,98396.56
2023-01-20T13:33:31.553Z,98399.25
2023-01-20T13:36:21.277Z,98399.97
2023-01-20T13:39:12.041Z,98385.41
2023-01-20T13:41:52.593Z,98380.25
2023-01-20T13:44:36.858Z,98378.47
2023-01-20T13:47:07.976Z,98386.28
2023-01-20T13:49:43.747Z,98385.22
2023-01-20T13:52:11.854Z,98388.00
2023-01-20T13:54:46.555Z,98381.97
2023-01-20T13:57:20.238Z,98379.38
2023-01-20T13:59:47.042Z,98386.13
2023-01-20T14:02:28.472Z,98378.25
2023-01-20T14:04:55.711Z,98374.97
2023-01-20T14:07:30.963Z,98387.00
2023-01-20T14:09:59.375Z,98388.78
2023-01-20T14:12:26.856Z,98388.72
2023-01-20T14:14:55.073Z,98387.16
2023-01-20T14:17:24.200Z,98382.03
2023-01-20T14:19:54.309Z,98383.69
2023-01-20T14:22:30.170Z,98384.53
2023-01-20T14:25:00.088Z,98378.47
2023-01-20T14:27:35.278Z,98367.19
2023-01-20T14:30:25.679Z,98375.06
2023-01-20T14:32:53.503Z,98384.66
2023-01-20T14:35:31.700Z,98380.28
2023-01-20T14:37:59.156Z,98385.63
2023-01-20T14:40:30.929Z,98384.72
2023-01-20T14:43:18.133Z,98392.53
2023-01-20T14:45:48.222Z,98389.91
2023-01-20T14:48:32.395Z,98398.50
2023-01-20T14:51:02.546Z,98391.66
2023-01-20T14:53:29.414Z,98402.06
2023-01-20T14:56:01.209Z,98398.59
2023-01-20T14:58:31.276Z,98411.53
2023-01-20T15:01:04.308Z,98411.53
2023-01-20T15:03:31.672Z,98409.00
2023-01-20T15:06:10.395Z,98415.94
2023-01-20T15:08:37.354Z,98412.50
2023-01-20T15:11:20.514Z,98420.16
2023-01-20T15:13:53.297Z,98422.88
2023-01-20T15:16:28.510Z,98429.88
2023-01-20T15:19:13.606Z,98426.31
2023-01-20T15:21:45.886Z,98420.16
2023-01-20T15:24:20.373Z,98419.44
2023-01-20T15:26:49.580Z,98426.44
2023-01-20T15:29:20.651Z,98427.16
2023-01-20T15:31:48.403Z,98419.34
2023-01-20T15:34:15.164Z,98428.13
2023-01-20T15:36:43.210Z,98433.31
2023-01-20T15:39:12.064Z,98434.28
2023-01-20T15:41:39.018Z,98433.47
2023-01-20T15:44:06.029Z,98439.31
2023-01-20T15:46:33.546Z,98435.13
2023-01-20T15:49:00.614Z,98439.38
2023-01-20T15:51:27.308Z,98435.75
2023-01-20T15:53:53.933Z,98447.94
2023-01-20T15:56:23.860Z,98432.25
2023-01-20T15:58:51.122Z,98438.38
2023-01-20T16:01:21.065Z,98441.81
2023-01-20T16:03:47.948Z,98435.72
2023-01-20T16:06:16.951Z,98442.66
2023-01-20T16:08:46.311Z,98440.00
2023-01-20T16:11:14.213Z,98443.31
2023-01-20T16:13:41.531Z,98447.03
2023-01-20T16:16:16.681Z,98445.25
2023-01-20T16:18:44.015Z,98448.69
2023-01-20T16:21:16.123Z,98456.47
2023-01-20T16:23:43.822Z,98452.84
2023-01-20T16:26:24.665Z,98458.22
2023-01-20T16:28:54.027Z,98465.22
2023-01-20T16:31:21.792Z,98467.00
2023-01-20T16:33:48.683Z,98463.53
2023-01-20T16:36:17.589Z,98462.66
2023-01-20T16:38:45.326Z,98467.75
2023-01-20T16:41:25.372Z,98458.06
2023-01-20T16:43:54.104Z,98466.13
2023-01-20T16:46:26.033Z,98466.81
2023-01-20T16:48:54.538Z,98461.84
2023-01-20T16:51:23.183Z,98471.44
2023-01-20T16:53:49.867Z,98469.66
2023-01-20T16:56:25.320Z,98467.88
2023-01-20T16:58:53.693Z,98467.94
2023-01-20T17:01:24.454Z,98459.94
2023-01-20T17:03:53.245Z,98460.91
2023-01-20T17:06:22.283Z,98461.53
2023-01-20T17:08:51.461Z,98463.59
2023-01-20T17:11:22.014Z,98467.88
2023-01-20T17:13:48.940Z,98476.28
2023-01-20T17:16:16.382Z,98471.28
2023-01-20T17:18:45.635Z,98470.97
2023-01-20T17:21:13.731Z,98473.63
2023-01-20T17:23:41.030Z,98469.50
2023-01-20T17:26:09.407Z,98475.63
2023-01-20T17:28:36.084Z,98472.25
2023-01-20T17:31:04.790Z,98471.53
2023-01-20T17:33:31.619Z,98473.25
2023-01-20T17:36:04.083Z,98472.41
2023-01-20T17:38:33.275Z,98480.25
2023-01-20T17:41:04.713Z,98478.13
2023-01-20T17:43:43.264Z,98474.72
2023-01-20T17:46:17.704Z,98476.66
2023-01-20T17:48:45.325Z,98481.13
2023-01-20T17:51:16.928Z,98481.00
2023-01-20T17:53:44.289Z,98478.22
2023-01-20T17:56:13.606Z,98488.94
2023-01-20T17:58:42.150Z,98481.81
2023-01-20T18:01:16.954Z,98481.75
2023-01-20T18:03:44.445Z,98493.25
2023-01-20T18:06:13.609Z,98490.66
2023-01-20T18:08:40.979Z,98486.13
2023-01-20T18:11:16.292Z,98484.41
2023-01-20T18:13:45.339Z,98486.00
2023-01-20T18:16:13.683Z,98492.84
2023-01-20T18:18:43.257Z,98490.09
2023-01-20T18:21:18.470Z,98491.09
2023-01-20T18:23:46.273Z,98491.91
2023-01-20T18:26:14.942Z,98494.53
2023-01-20T18:28:42.611Z,98493.59
2023-01-20T18:31:12.687Z,98484.03
2023-01-20T18:33:44.463Z,98480.59
2023-01-20T18:36:14.973Z,98494.47
2023-01-20T18:38:45.236Z,98487.56
2023-01-20T18:41:13.631Z,98485.06
2023-01-20T18:43:41.019Z,98488.66
2023-01-20T18:46:08.896Z,98485.03
2023-01-20T18:48:40.599Z,98489.28
2023-01-20T18:51:10.490Z,98482.56
2023-01-20T18:53:37.616Z,98480.66
2023-01-20T18:56:07.313Z,98485.88
2023-01-20T18:58:35.328Z,98480.59
2023-01-20T19:01:14.126Z,98482.44
2023-01-20T19:03:41.161Z,98485.84
2023-01-20T19:06:11.225Z,98481.59
2023-01-20T19:08:39.052Z,98482.91
2023-01-20T19:11:08.879Z,98483.16
2023-01-20T19:13:36.126Z,98474.59
2023-01-20T19:16:02.929Z,98477.16
2023-01-20T19:18:29.682Z,98481.47
2023-01-20T19:20:56.372Z,98481.53
2023-01-20T19:23:23.038Z,98483.28
2023-01-20T19:25:59.593Z,98492.00
2023-01-20T19:28:26.240Z,98483.41
2023-01-20T19:30:53.065Z,98486.19
2023-01-20T19:33:19.744Z,98487.00
2023-01-20T19:35:46.431Z,98488.66
2023-01-20T19:38:13.423Z,98480.94
2023-01-20T19:40:40.172Z,98486.22
2023-01-20T19:43:06.797Z,98486.94
2023-01-20T19:45:45.438Z,98488.88
2023-01-20T19:48:12.855Z,98491.38
2023-01-20T19:50:39.798Z,98492.38
2023-01-20T19:53:06.470Z,98490.66
2023-01-20T19:55:33.121Z,98488.91
2023-01-20T19:57:59.755Z,98490.66
2023-01-20T20:00:26.380Z,98484.50
2023-01-20T20:02:54.413Z,98490.31
2023-01-20T20:05:21.122Z,98477.31
2023-01-20T20:07:47.768Z,98480.88
2023-01-20T20:10:17.586Z,98477.50
2023-01-20T20:12:44.356Z,98479.19
2023-01-20T20:15:11.181Z,98488.00
2023-01-20T20:17:38.013Z,98493.19
2023-01-20T20:20:05.367Z,98490.59
2023-01-20T20:22:32.081Z,98496.81
2023-01-20T20:24:58.732Z,98502.00
2023-01-20T20:27:25.470Z,98502.06
2023-01-20T20:29:54.485Z,98497.72
2023-01-20T20:32:21.097Z,98495.09
2023-01-20T20:34:47.741Z,98497.72
2023-01-20T20:37:14.407Z,98498.63
2023-01-20T20:39:41.118Z,98499.47
2023-01-20T20:42:07.805Z,98507.38
2023-01-20T20:44:34.771Z,98503.81
2023-01-20T20:47:01.612Z,98506.44
2023-01-20T20:49:28.581Z,98519.50
2023-01-20T20:51:55.230Z,98515.13
2023-01-20T20:54:22.121Z,98509.94
2023-01-20T20:56:48.761Z,98511.75
2023-01-20T20:59:15.422Z,98519.59
2023-01-20T21:01:42.112Z,98504.81
2023-01-20T21:04:08.897Z,98511.69
2023-01-20T21:06:35.597Z,98506.56
2023-01-20T21:09:02.284Z,98516.09
2023-01-20T21:11:29.284Z,98508.06
2023-01-20T21:13:56.327Z,98510.75
2023-01-20T21:16:24.854Z,98514.25
2023-01-20T21:18:53.639Z,98504.44
2023-01-20T21:21:20.951Z,98508.97
2023-01-20T21:23:55.781Z,98513.28
2023-01-20T21:26:24.654Z,98515.13
2023-01-20T21:28:51.577Z,98511.53
2023-01-20T21:31:21.373Z,98516.00
2023-01-20T21:33:53.540Z,98511.63
2023-01-20T21:36:21.402Z,98517.72
2023-01-20T21:38:48.334Z,98511.63
2023-01-20T21:41:16.382Z,98513.47
2023-01-20T21:44:04.246Z,98516.97
2023-01-20T21:46:35.875Z,98523.09
2023-01-20T21:49:23.097Z,98517.00
2023-01-20T21:52:08.536Z,98523.16
2023-01-20T21:54:35.302Z,98513.59
2023-01-20T21:57:02.308Z,98519.72
2023-01-20T21:59:28.970Z,98525.78
2023-01-20T22:01:55.656Z,98522.31
2023-01-20T22:04:22.310Z,98531.88
2023-01-20T22:06:49.188Z,98530.13
2023-01-20T22:09:15.798Z,98542.31
2023-01-20T22:11:42.509Z,98540.53
2023-01-20T22:14:10.038Z,98545.81
2023-01-20T22:16:36.739Z,98544.88
2023-01-20T22:19:03.424Z,98548.34
2023-01-20T22:21:30.071Z,98552.69
2023-01-20T22:23:56.754Z,98557.00
2023-01-20T22:26:23.447Z,98554.41
2023-01-20T22:28:50.197Z,98554.47
2023-01-20T22:31:21.703Z,98557.91
2023-01-20T22:33:56.013Z,98550.94
2023-01-20T22:36:23.691Z,98555.28
2023-01-20T22:38:51.742Z,98551.81
2023-01-20T22:41:19.241Z,98555.31
2023-01-20T22:43:47.959Z,98559.69
2023-01-20T22:46:16.345Z,98559.75
2023-01-20T22:48:43.444Z,98560.66
2023-01-20T22:51:15.664Z,98564.16
2023-01-20T22:53:43.380Z,98566.78
2023-01-20T22:56:13.701Z,98564.19
2023-01-20T22:58:40.788Z,98569.41
2023-01-20T23:01:19.261Z,98569.41
2023-01-20T23:03:47.011Z,98570.31
2023-01-20T23:06:14.485Z,98569.44
2023-01-20T23:08:41.647Z,98576.44
2023-01-20T23:11:11.452Z,98571.22
2023-01-20T23:13:41.275Z,98567.72
2023-01-20T23:16:12.674Z,98570.31
2023-01-20T23:18:39.327Z,98571.19
2023-01-20T23:21:06.397Z,98565.97
2023-01-20T23:23:33.173Z,98574.66
2023-01-20T23:26:05.165Z,98577.28
2023-01-20T23:28:32.476Z,98572.00
2023-01-20T23:31:01.474Z,98576.38
2023-01-20T23:33:28.359Z,98579.88
2023-01-20T23:35:55.068Z,98576.34
2023-01-20T23:38:21.750Z,98577.25
2023-01-20T23:40:49.241Z,98580.75
2023-01-20T23:43:15.910Z,98579.03
2023-01-20T23:45:42.697Z,98583.38
2023-01-20T23:48:09.364Z,98579.91
2023-01-20T23:50:36.035Z,98579.03
2023-01-20T23:53:02.696Z,98582.53
2023-01-20T23:55:29.371Z,98583.38
2023-01-20T23:57:56.329Z,98589.50
